sensor_id;sensor_type;location;lat;lon;timestamp;temperature;humidity
74484;SHT31;62942;52.462;10.846;2024-02-15T00:00:25;10.3;98.7
74484;SHT31;62942;52.462;10.846;2024-02-15T00:01:25;10.3;98.7
74484;SHT31;62942;52.462;10.846;2024-02-15T00:02:35;10.3;98.8
74484;SHT31;62942;52.462;10.846;2024-02-15T00:03:35;10.3;98.8
74484;SHT31;62942;52.462;10.846;2024-02-15T00:04:45;10.3;98.8
74484;SHT31;62942;52.462;10.846;2024-02-15T00:05:45;10.3;98.8
74484;SHT31;62942;52.462;10.846;2024-02-15T00:06:55;10.3;98.7
74484;SHT31;62942;52.462;10.846;2024-02-15T00:08:05;10.3;98.7
74484;SHT31;62942;52.462;10.846;2024-02-15T00:09:05;10.3;98.8
74484;SHT31;62942;52.462;10.846;2024-02-15T00:10:06;10.3;98.8
74484;SHT31;62942;52.462;10.846;2024-02-15T00:11:15;10.3;98.8
74484;SHT31;62942;52.462;10.846;2024-02-15T00:12:25;10.3;98.8
74484;SHT31;62942;52.462;10.846;2024-02-15T00:13:25;10.3;98.9
74484;SHT31;62942;52.462;10.846;2024-02-15T00:14:25;10.4;98.8
74484;SHT31;62942;52.462;10.846;2024-02-15T00:15:25;10.4;98.8
74484;SHT31;62942;52.462;10.846;2024-02-15T00:16:35;10.4;98.8
74484;SHT31;62942;52.462;10.846;2024-02-15T00:17:45;10.4;98.9
74484;SHT31;62942;52.462;10.846;2024-02-15T00:18:45;10.4;98.8
74484;SHT31;62942;52.462;10.846;2024-02-15T00:19:45;10.4;98.8
74484;SHT31;62942;52.462;10.846;2024-02-15T00:20:55;10.4;98.8
74484;SHT31;62942;52.462;10.846;2024-02-15T00:21:55;10.4;98.8
74484;SHT31;62942;52.462;10.846;2024-02-15T00:22:55;10.4;98.8
74484;SHT31;62942;52.462;10.846;2024-02-15T00:24:05;10.4;98.8
74484;SHT31;62942;52.462;10.846;2024-02-15T00:25:15;10.4;98.8
74484;SHT31;62942;52.462;10.846;2024-02-15T00:26:16;10.4;98.8
74484;SHT31;62942;52.462;10.846;2024-02-15T00:27:25;10.4;98.7
74484;SHT31;62942;52.462;10.846;2024-02-15T00:28:25;10.4;98.8
74484;SHT31;62942;52.462;10.846;2024-02-15T00:29:35;10.4;98.7
74484;SHT31;62942;52.462;10.846;2024-02-15T00:30:45;10.4;98.7
74484;SHT31;62942;52.462;10.846;2024-02-15T00:31:55;10.4;98.7
74484;SHT31;62942;52.462;10.846;2024-02-15T00:32:55;10.4;98.7
74484;SHT31;62942;52.462;10.846;2024-02-15T00:34:05;10.4;98.7
74484;SHT31;62942;52.462;10.846;2024-02-15T00:35:15;10.4;98.6
74484;SHT31;62942;52.462;10.846;2024-02-15T00:36:15;10.4;98.7
74484;SHT31;62942;52.462;10.846;2024-02-15T00:37:25;10.5;98.6
74484;SHT31;62942;52.462;10.846;2024-02-15T00:38:35;10.5;98.6
74484;SHT31;62942;52.462;10.846;2024-02-15T00:39:35;10.5;98.6
74484;SHT31;62942;52.462;10.846;2024-02-15T00:40:35;10.4;98.6
74484;SHT31;62942;52.462;10.846;2024-02-15T00:41:35;10.5;98.6
74484;SHT31;62942;52.462;10.846;2024-02-15T00:42:45;10.5;98.5
74484;SHT31;62942;52.462;10.846;2024-02-15T00:43:45;10.5;98.6
74484;SHT31;62942;52.462;10.846;2024-02-15T00:44:55;10.5;98.5
74484;SHT31;62942;52.462;10.846;2024-02-15T00:46:05;10.5;98.5
74484;SHT31;62942;52.462;10.846;2024-02-15T00:47:15;10.5;98.5
74484;SHT31;62942;52.462;10.846;2024-02-15T00:48:15;10.5;98.4
74484;SHT31;62942;52.462;10.846;2024-02-15T00:49:25;10.6;98.5
74484;SHT31;62942;52.462;10.846;2024-02-15T00:50:25;10.6;98.5
74484;SHT31;62942;52.462;10.846;2024-02-15T00:51:35;10.5;98.5
74484;SHT31;62942;52.462;10.846;2024-02-15T00:52:45;10.6;98.4
74484;SHT31;62942;52.462;10.846;2024-02-15T00:53:45;10.6;98.4
74484;SHT31;62942;52.462;10.846;2024-02-15T00:54:55;10.5;98.4
74484;SHT31;62942;52.462;10.846;2024-02-15T00:55:55;10.6;98.4
74484;SHT31;62942;52.462;10.846;2024-02-15T00:57:05;10.6;98.4
74484;SHT31;62942;52.462;10.846;2024-02-15T00:58:05;10.6;98.4
74484;SHT31;62942;52.462;10.846;2024-02-15T00:59:15;10.6;98.3
74484;SHT31;62942;52.462;10.846;2024-02-15T01:00:25;10.6;98.4
74484;SHT31;62942;52.462;10.846;2024-02-15T01:01:35;10.6;98.3
74484;SHT31;62942;52.462;10.846;2024-02-15T01:02:45;10.6;98.2
74484;SHT31;62942;52.462;10.846;2024-02-15T01:03:55;10.6;98.2
74484;SHT31;62942;52.462;10.846;2024-02-15T01:04:55;10.7;98.2
74484;SHT31;62942;52.462;10.846;2024-02-15T01:05:56;10.7;98.2
74484;SHT31;62942;52.462;10.846;2024-02-15T01:07:05;10.6;98.2
74484;SHT31;62942;52.462;10.846;2024-02-15T01:08:05;10.7;98.2
74484;SHT31;62942;52.462;10.846;2024-02-15T01:09:15;10.7;98.2
74484;SHT31;62942;52.462;10.846;2024-02-15T01:10:15;10.7;98.2
74484;SHT31;62942;52.462;10.846;2024-02-15T01:11:25;10.7;98.1
74484;SHT31;62942;52.462;10.846;2024-02-15T01:12:25;10.7;98.1
74484;SHT31;62942;52.462;10.846;2024-02-15T01:13:35;10.7;98.1
74484;SHT31;62942;52.462;10.846;2024-02-15T01:14:35;10.7;98.1
74484;SHT31;62942;52.462;10.846;2024-02-15T01:15:35;10.7;98
74484;SHT31;62942;52.462;10.846;2024-02-15T01:16:45;10.7;98.1
74484;SHT31;62942;52.462;10.846;2024-02-15T01:17:45;10.7;98
74484;SHT31;62942;52.462;10.846;2024-02-15T01:18:55;10.8;98
74484;SHT31;62942;52.462;10.846;2024-02-15T01:19:55;10.7;98
74484;SHT31;62942;52.462;10.846;2024-02-15T01:20:55;10.8;98
74484;SHT31;62942;52.462;10.846;2024-02-15T01:22:05;10.8;98
74484;SHT31;62942;52.462;10.846;2024-02-15T01:23:05;10.8;98
74484;SHT31;62942;52.462;10.846;2024-02-15T01:24:15;10.8;97.9
74484;SHT31;62942;52.462;10.846;2024-02-15T01:25:25;10.8;97.9
74484;SHT31;62942;52.462;10.846;2024-02-15T01:26:35;10.8;97.9
74484;SHT31;62942;52.462;10.846;2024-02-15T01:27:35;10.8;97.9
74484;SHT31;62942;52.462;10.846;2024-02-15T01:28:45;10.8;97.9
74484;SHT31;62942;52.462;10.846;2024-02-15T01:29:55;10.8;97.8
74484;SHT31;62942;52.462;10.846;2024-02-15T01:30:55;10.8;97.8
74484;SHT31;62942;52.462;10.846;2024-02-15T01:32:05;10.8;97.8
74484;SHT31;62942;52.462;10.846;2024-02-15T01:33:15;10.8;97.8
74484;SHT31;62942;52.462;10.846;2024-02-15T01:34:25;10.8;97.8
74484;SHT31;62942;52.462;10.846;2024-02-15T01:35:26;10.8;97.7
74484;SHT31;62942;52.462;10.846;2024-02-15T01:36:35;10.8;97.7
74484;SHT31;62942;52.462;10.846;2024-02-15T01:37:45;10.8;97.7
74484;SHT31;62942;52.462;10.846;2024-02-15T01:38:55;10.8;97.7
74484;SHT31;62942;52.462;10.846;2024-02-15T01:39:55;10.8;97.7
74484;SHT31;62942;52.462;10.846;2024-02-15T01:41:05;10.8;97.6
74484;SHT31;62942;52.462;10.846;2024-02-15T01:42:15;10.8;97.6
74484;SHT31;62942;52.462;10.846;2024-02-15T01:43:15;10.8;97.6
74484;SHT31;62942;52.462;10.846;2024-02-15T01:44:16;10.8;97.6
74484;SHT31;62942;52.462;10.846;2024-02-15T01:45:25;10.8;97.6
74484;SHT31;62942;52.462;10.846;2024-02-15T01:46:25;10.8;97.6
74484;SHT31;62942;52.462;10.846;2024-02-15T01:47:25;10.8;97.5
74484;SHT31;62942;52.462;10.846;2024-02-15T01:48:35;10.8;97.5
74484;SHT31;62942;52.462;10.846;2024-02-15T01:49:35;10.8;97.5
74484;SHT31;62942;52.462;10.846;2024-02-15T01:50:45;10.8;97.5
74484;SHT31;62942;52.462;10.846;2024-02-15T01:51:56;10.8;97.5
74484;SHT31;62942;52.462;10.846;2024-02-15T01:52:55;10.8;97.5
74484;SHT31;62942;52.462;10.846;2024-02-15T01:54:05;10.8;97.5
74484;SHT31;62942;52.462;10.846;2024-02-15T01:55:15;10.8;97.5
74484;SHT31;62942;52.462;10.846;2024-02-15T01:56:25;10.8;97.5
74484;SHT31;62942;52.462;10.846;2024-02-15T01:57:25;10.8;97.5
74484;SHT31;62942;52.462;10.846;2024-02-15T01:58:35;10.8;97.4
74484;SHT31;62942;52.462;10.846;2024-02-15T01:59:45;10.8;97.5
74484;SHT31;62942;52.462;10.846;2024-02-15T02:00:55;10.8;97.5
74484;SHT31;62942;52.462;10.846;2024-02-15T02:02:06;10.8;97.5
74484;SHT31;62942;52.462;10.846;2024-02-15T02:03:05;10.8;97.5
74484;SHT31;62942;52.462;10.846;2024-02-15T02:04:15;10.8;97.5
74484;SHT31;62942;52.462;10.846;2024-02-15T02:05:25;10.8;97.6
74484;SHT31;62942;52.462;10.846;2024-02-15T02:06:36;10.8;97.5
74484;SHT31;62942;52.462;10.846;2024-02-15T02:07:35;10.8;97.6
74484;SHT31;62942;52.462;10.846;2024-02-15T02:08:45;10.8;97.6
74484;SHT31;62942;52.462;10.846;2024-02-15T02:09:46;10.8;97.6
74484;SHT31;62942;52.462;10.846;2024-02-15T02:10:55;10.8;97.6
74484;SHT31;62942;52.462;10.846;2024-02-15T02:11:55;10.8;97.6
74484;SHT31;62942;52.462;10.846;2024-02-15T02:13:05;10.8;97.6
74484;SHT31;62942;52.462;10.846;2024-02-15T02:14:15;10.8;97.6
74484;SHT31;62942;52.462;10.846;2024-02-15T02:15:15;10.8;97.5
74484;SHT31;62942;52.462;10.846;2024-02-15T02:16:25;10.8;97.5
74484;SHT31;62942;52.462;10.846;2024-02-15T02:17:35;10.8;97.6
74484;SHT31;62942;52.462;10.846;2024-02-15T02:18:35;10.8;97.5
74484;SHT31;62942;52.462;10.846;2024-02-15T02:19:45;10.8;97.5
74484;SHT31;62942;52.462;10.846;2024-02-15T02:20:55;10.8;97.6
74484;SHT31;62942;52.462;10.846;2024-02-15T02:21:55;10.8;97.6
74484;SHT31;62942;52.462;10.846;2024-02-15T02:23:07;10.8;97.6
74484;SHT31;62942;52.462;10.846;2024-02-15T02:24:08;10.8;97.6
74484;SHT31;62942;52.462;10.846;2024-02-15T02:25:15;10.8;97.6
74484;SHT31;62942;52.462;10.846;2024-02-15T02:26:25;10.8;97.7
74484;SHT31;62942;52.462;10.846;2024-02-15T02:27:35;10.8;97.7
74484;SHT31;62942;52.462;10.846;2024-02-15T02:28:45;10.8;97.6
74484;SHT31;62942;52.462;10.846;2024-02-15T02:29:55;10.8;97.6
74484;SHT31;62942;52.462;10.846;2024-02-15T02:31:05;10.8;97.6
74484;SHT31;62942;52.462;10.846;2024-02-15T02:32:05;10.7;97.6
74484;SHT31;62942;52.462;10.846;2024-02-15T02:33:05;10.8;97.7
74484;SHT31;62942;52.462;10.846;2024-02-15T02:34:15;10.7;97.7
74484;SHT31;62942;52.462;10.846;2024-02-15T02:35:25;10.7;97.6
74484;SHT31;62942;52.462;10.846;2024-02-15T02:36:35;10.7;97.6
74484;SHT31;62942;52.462;10.846;2024-02-15T02:37:35;10.6;97.6
74484;SHT31;62942;52.462;10.846;2024-02-15T02:38:45;10.6;97.7
74484;SHT31;62942;52.462;10.846;2024-02-15T02:39:55;10.6;97.6
74484;SHT31;62942;52.462;10.846;2024-02-15T02:40:55;10.6;97.6
74484;SHT31;62942;52.462;10.846;2024-02-15T02:42:05;10.6;97.7
74484;SHT31;62942;52.462;10.846;2024-02-15T02:43:15;10.6;97.8
74484;SHT31;62942;52.462;10.846;2024-02-15T02:44:25;10.6;97.7
74484;SHT31;62942;52.462;10.846;2024-02-15T02:45:25;10.6;97.7
74484;SHT31;62942;52.462;10.846;2024-02-15T02:46:35;10.7;97.7
74484;SHT31;62942;52.462;10.846;2024-02-15T02:47:35;10.6;97.7
74484;SHT31;62942;52.462;10.846;2024-02-15T02:48:45;10.7;97.7
74484;SHT31;62942;52.462;10.846;2024-02-15T02:49:55;10.7;97.8
74484;SHT31;62942;52.462;10.846;2024-02-15T02:51:06;10.7;97.8
74484;SHT31;62942;52.462;10.846;2024-02-15T02:52:05;10.7;97.8
74484;SHT31;62942;52.462;10.846;2024-02-15T02:53:15;10.7;97.8
74484;SHT31;62942;52.462;10.846;2024-02-15T02:54:15;10.7;97.8
74484;SHT31;62942;52.462;10.846;2024-02-15T02:55:25;10.7;97.8
74484;SHT31;62942;52.462;10.846;2024-02-15T02:56:25;10.8;97.9
74484;SHT31;62942;52.462;10.846;2024-02-15T02:57:35;10.8;97.8
74484;SHT31;62942;52.462;10.846;2024-02-15T02:58:35;10.8;97.8
74484;SHT31;62942;52.462;10.846;2024-02-15T02:59:45;10.8;97.7
74484;SHT31;62942;52.462;10.846;2024-02-15T03:00:45;10.8;97.8
74484;SHT31;62942;52.462;10.846;2024-02-15T03:01:55;10.9;97.7
74484;SHT31;62942;52.462;10.846;2024-02-15T03:03:05;10.9;97.7
74484;SHT31;62942;52.462;10.846;2024-02-15T03:04:05;10.9;97.7
74484;SHT31;62942;52.462;10.846;2024-02-15T03:05:15;10.9;97.7
74484;SHT31;62942;52.462;10.846;2024-02-15T03:06:15;10.9;97.7
74484;SHT31;62942;52.462;10.846;2024-02-15T03:07:25;10.9;97.7
74484;SHT31;62942;52.462;10.846;2024-02-15T03:08:35;10.9;97.6
74484;SHT31;62942;52.462;10.846;2024-02-15T03:09:35;10.9;97.5
74484;SHT31;62942;52.462;10.846;2024-02-15T03:10:35;10.9;97.5
74484;SHT31;62942;52.462;10.846;2024-02-15T03:11:45;10.9;97.5
74484;SHT31;62942;52.462;10.846;2024-02-15T03:12:45;10.9;97.4
74484;SHT31;62942;52.462;10.846;2024-02-15T03:13:55;10.9;97.4
74484;SHT31;62942;52.462;10.846;2024-02-15T03:14:55;10.9;97.5
74484;SHT31;62942;52.462;10.846;2024-02-15T03:15:55;10.9;97.5
74484;SHT31;62942;52.462;10.846;2024-02-15T03:17:05;10.9;97.4
74484;SHT31;62942;52.462;10.846;2024-02-15T03:18:05;10.9;97.4
74484;SHT31;62942;52.462;10.846;2024-02-15T03:19:15;10.9;97.4
74484;SHT31;62942;52.462;10.846;2024-02-15T03:20:25;10.9;97.4
74484;SHT31;62942;52.462;10.846;2024-02-15T03:21:26;10.9;97.3
74484;SHT31;62942;52.462;10.846;2024-02-15T03:22:35;10.9;97.3
74484;SHT31;62942;52.462;10.846;2024-02-15T03:23:45;10.9;97.3
74484;SHT31;62942;52.462;10.846;2024-02-15T03:24:45;10.9;97.3
74484;SHT31;62942;52.462;10.846;2024-02-15T03:25:55;10.9;97.2
74484;SHT31;62942;52.462;10.846;2024-02-15T03:27:05;10.9;97.2
74484;SHT31;62942;52.462;10.846;2024-02-15T03:28:05;10.9;97.2
74484;SHT31;62942;52.462;10.846;2024-02-15T03:29:15;10.9;97.2
74484;SHT31;62942;52.462;10.846;2024-02-15T03:30:26;10.9;97.2
74484;SHT31;62942;52.462;10.846;2024-02-15T03:31:35;10.9;97.2
74484;SHT31;62942;52.462;10.846;2024-02-15T03:32:35;10.9;97.2
74484;SHT31;62942;52.462;10.846;2024-02-15T03:33:45;10.9;97.2
74484;SHT31;62942;52.462;10.846;2024-02-15T03:34:55;10.9;97.1
74484;SHT31;62942;52.462;10.846;2024-02-15T03:35:55;10.9;97.2
74484;SHT31;62942;52.462;10.846;2024-02-15T03:36:55;10.9;97.2
74484;SHT31;62942;52.462;10.846;2024-02-15T03:38:05;10.9;97.2
74484;SHT31;62942;52.462;10.846;2024-02-15T03:39:05;10.9;97.1
74484;SHT31;62942;52.462;10.846;2024-02-15T03:40:15;10.9;97.1
74484;SHT31;62942;52.462;10.846;2024-02-15T03:41:27;10.9;97.1
74484;SHT31;62942;52.462;10.846;2024-02-15T03:42:35;10.9;97.1
74484;SHT31;62942;52.462;10.846;2024-02-15T03:43:45;10.9;97.1
74484;SHT31;62942;52.462;10.846;2024-02-15T03:44:55;10.9;97.1
74484;SHT31;62942;52.462;10.846;2024-02-15T03:45:55;10.9;97.1
74484;SHT31;62942;52.462;10.846;2024-02-15T03:47:05;10.9;97.1
74484;SHT31;62942;52.462;10.846;2024-02-15T03:48:15;10.9;97.1
74484;SHT31;62942;52.462;10.846;2024-02-15T03:49:15;10.9;97.1
74484;SHT31;62942;52.462;10.846;2024-02-15T03:50:25;10.9;97.1
74484;SHT31;62942;52.462;10.846;2024-02-15T03:51:25;10.9;97.1
74484;SHT31;62942;52.462;10.846;2024-02-15T03:52:25;10.9;97.1
74484;SHT31;62942;52.462;10.846;2024-02-15T03:53:25;10.9;97.1
74484;SHT31;62942;52.462;10.846;2024-02-15T03:54:25;10.9;97.1
74484;SHT31;62942;52.462;10.846;2024-02-15T03:55:35;10.9;97.1
74484;SHT31;62942;52.462;10.846;2024-02-15T03:56:35;10.9;97.1
74484;SHT31;62942;52.462;10.846;2024-02-15T03:57:45;10.9;97
74484;SHT31;62942;52.462;10.846;2024-02-15T03:58:45;10.9;97
74484;SHT31;62942;52.462;10.846;2024-02-15T03:59:55;10.9;97
74484;SHT31;62942;52.462;10.846;2024-02-15T04:01:05;10.9;97
74484;SHT31;62942;52.462;10.846;2024-02-15T04:02:05;10.9;96.9
74484;SHT31;62942;52.462;10.846;2024-02-15T04:03:05;10.9;96.9
74484;SHT31;62942;52.462;10.846;2024-02-15T04:04:05;10.9;97
74484;SHT31;62942;52.462;10.846;2024-02-15T04:05:15;10.9;96.9
74484;SHT31;62942;52.462;10.846;2024-02-15T04:06:15;10.9;96.9
74484;SHT31;62942;52.462;10.846;2024-02-15T04:07:25;10.9;96.9
74484;SHT31;62942;52.462;10.846;2024-02-15T04:08:25;10.9;96.9
74484;SHT31;62942;52.462;10.846;2024-02-15T04:09:35;10.9;96.9
74484;SHT31;62942;52.462;10.846;2024-02-15T04:10:45;10.9;96.9
74484;SHT31;62942;52.462;10.846;2024-02-15T04:11:45;10.9;96.9
74484;SHT31;62942;52.462;10.846;2024-02-15T04:12:45;10.9;96.9
74484;SHT31;62942;52.462;10.846;2024-02-15T04:13:55;10.9;96.9
74484;SHT31;62942;52.462;10.846;2024-02-15T04:14:55;10.9;96.9
74484;SHT31;62942;52.462;10.846;2024-02-15T04:16:05;10.9;96.9
74484;SHT31;62942;52.462;10.846;2024-02-15T04:17:05;10.9;96.9
74484;SHT31;62942;52.462;10.846;2024-02-15T04:18:15;10.9;96.8
74484;SHT31;62942;52.462;10.846;2024-02-15T04:19:25;10.9;96.8
74484;SHT31;62942;52.462;10.846;2024-02-15T04:20:25;10.9;96.8
74484;SHT31;62942;52.462;10.846;2024-02-15T04:21:35;10.9;96.8
74484;SHT31;62942;52.462;10.846;2024-02-15T04:22:35;10.9;96.8
74484;SHT31;62942;52.462;10.846;2024-02-15T04:23:45;10.9;96.8
74484;SHT31;62942;52.462;10.846;2024-02-15T04:24:55;10.9;96.8
74484;SHT31;62942;52.462;10.846;2024-02-15T04:25:55;10.9;96.8
74484;SHT31;62942;52.462;10.846;2024-02-15T04:26:55;11;96.8
74484;SHT31;62942;52.462;10.846;2024-02-15T04:28:05;11;96.8
74484;SHT31;62942;52.462;10.846;2024-02-15T04:29:15;11;96.7
74484;SHT31;62942;52.462;10.846;2024-02-15T04:30:15;11;96.6
74484;SHT31;62942;52.462;10.846;2024-02-15T04:31:15;11;96.7
74484;SHT31;62942;52.462;10.846;2024-02-15T04:32:25;11;96.6
74484;SHT31;62942;52.462;10.846;2024-02-15T04:33:25;11;96.6
74484;SHT31;62942;52.462;10.846;2024-02-15T04:34:35;11;96.6
74484;SHT31;62942;52.462;10.846;2024-02-15T04:35:35;11;96.6
74484;SHT31;62942;52.462;10.846;2024-02-15T04:36:35;11;96.6
74484;SHT31;62942;52.462;10.846;2024-02-15T04:37:45;10.9;96.5
74484;SHT31;62942;52.462;10.846;2024-02-15T04:38:45;11;96.6
74484;SHT31;62942;52.462;10.846;2024-02-15T04:39:55;11;96.6
74484;SHT31;62942;52.462;10.846;2024-02-15T04:41:05;11;96.6
74484;SHT31;62942;52.462;10.846;2024-02-15T04:42:05;11;96.6
74484;SHT31;62942;52.462;10.846;2024-02-15T04:43:05;11;96.6
74484;SHT31;62942;52.462;10.846;2024-02-15T04:44:15;11;96.6
74484;SHT31;62942;52.462;10.846;2024-02-15T04:45:25;11;96.6
74484;SHT31;62942;52.462;10.846;2024-02-15T04:46:25;11;96.6
74484;SHT31;62942;52.462;10.846;2024-02-15T04:47:35;11;96.6
74484;SHT31;62942;52.462;10.846;2024-02-15T04:48:35;11;96.6
74484;SHT31;62942;52.462;10.846;2024-02-15T04:49:45;11;96.7
74484;SHT31;62942;52.462;10.846;2024-02-15T04:50:45;11;96.6
74484;SHT31;62942;52.462;10.846;2024-02-15T04:51:55;11;96.6
74484;SHT31;62942;52.462;10.846;2024-02-15T04:52:55;11;96.6
74484;SHT31;62942;52.462;10.846;2024-02-15T04:54:05;11;96.6
74484;SHT31;62942;52.462;10.846;2024-02-15T04:55:05;11;96.6
74484;SHT31;62942;52.462;10.846;2024-02-15T04:56:15;11;96.6
74484;SHT31;62942;52.462;10.846;2024-02-15T04:57:25;11;96.7
74484;SHT31;62942;52.462;10.846;2024-02-15T04:58:35;11;96.7
74484;SHT31;62942;52.462;10.846;2024-02-15T04:59:45;11;96.7
74484;SHT31;62942;52.462;10.846;2024-02-15T05:00:55;11;96.8
74484;SHT31;62942;52.462;10.846;2024-02-15T05:02:05;11;96.9
74484;SHT31;62942;52.462;10.846;2024-02-15T05:03:05;11;96.9
74484;SHT31;62942;52.462;10.846;2024-02-15T05:04:15;11;96.9
74484;SHT31;62942;52.462;10.846;2024-02-15T05:05:25;11.1;97
74484;SHT31;62942;52.462;10.846;2024-02-15T05:06:25;11;96.9
74484;SHT31;62942;52.462;10.846;2024-02-15T05:07:35;11;97
74484;SHT31;62942;52.462;10.846;2024-02-15T05:08:35;11;97
74484;SHT31;62942;52.462;10.846;2024-02-15T05:09:45;11.1;97
74484;SHT31;62942;52.462;10.846;2024-02-15T05:10:45;11.1;97
74484;SHT31;62942;52.462;10.846;2024-02-15T05:11:45;11.1;97
74484;SHT31;62942;52.462;10.846;2024-02-15T05:12:55;11.1;96.9
74484;SHT31;62942;52.462;10.846;2024-02-15T05:14:05;11.1;97
74484;SHT31;62942;52.462;10.846;2024-02-15T05:15:15;11.1;97
74484;SHT31;62942;52.462;10.846;2024-02-15T05:16:25;11.1;97
74484;SHT31;62942;52.462;10.846;2024-02-15T05:17:25;11.1;97
74484;SHT31;62942;52.462;10.846;2024-02-15T05:18:35;11.1;97
74484;SHT31;62942;52.462;10.846;2024-02-15T05:19:45;11.1;96.9
74484;SHT31;62942;52.462;10.846;2024-02-15T05:20:55;11.1;96.9
74484;SHT31;62942;52.462;10.846;2024-02-15T05:21:55;11.1;97
74484;SHT31;62942;52.462;10.846;2024-02-15T05:23:05;11.1;97
74484;SHT31;62942;52.462;10.846;2024-02-15T05:24:05;11.1;96.9
74484;SHT31;62942;52.462;10.846;2024-02-15T05:25:15;11.1;96.9
74484;SHT31;62942;52.462;10.846;2024-02-15T05:26:25;11.1;96.9
74484;SHT31;62942;52.462;10.846;2024-02-15T05:27:35;11.1;96.9
74484;SHT31;62942;52.462;10.846;2024-02-15T05:28:35;11.1;96.9
74484;SHT31;62942;52.462;10.846;2024-02-15T05:29:45;11.1;96.9
74484;SHT31;62942;52.462;10.846;2024-02-15T05:31:08;11.1;96.9
74484;SHT31;62942;52.462;10.846;2024-02-15T05:32:05;11.1;96.9
74484;SHT31;62942;52.462;10.846;2024-02-15T05:33:05;11.1;97
74484;SHT31;62942;52.462;10.846;2024-02-15T05:34:15;11;97
74484;SHT31;62942;52.462;10.846;2024-02-15T05:35:25;11.1;97
74484;SHT31;62942;52.462;10.846;2024-02-15T05:36:35;11.1;97.1
74484;SHT31;62942;52.462;10.846;2024-02-15T05:37:35;11.1;97.1
74484;SHT31;62942;52.462;10.846;2024-02-15T05:38:35;11;97.1
74484;SHT31;62942;52.462;10.846;2024-02-15T05:39:45;11.1;97.1
74484;SHT31;62942;52.462;10.846;2024-02-15T05:40:45;11.1;97.1
74484;SHT31;62942;52.462;10.846;2024-02-15T05:41:45;11;97.1
74484;SHT31;62942;52.462;10.846;2024-02-15T05:42:45;11;97.1
74484;SHT31;62942;52.462;10.846;2024-02-15T05:43:55;11;97.1
74484;SHT31;62942;52.462;10.846;2024-02-15T05:45:27;11;97.1
74484;SHT31;62942;52.462;10.846;2024-02-15T05:46:05;11;97.1
74484;SHT31;62942;52.462;10.846;2024-02-15T05:47:15;11;97.2
74484;SHT31;62942;52.462;10.846;2024-02-15T05:48:15;11;97.2
74484;SHT31;62942;52.462;10.846;2024-02-15T05:49:25;11;97.2
74484;SHT31;62942;52.462;10.846;2024-02-15T05:50:35;11;97.2
74484;SHT31;62942;52.462;10.846;2024-02-15T05:51:45;11;97.2
74484;SHT31;62942;52.462;10.846;2024-02-15T05:52:55;11;97.2
74484;SHT31;62942;52.462;10.846;2024-02-15T05:53:55;11;97.3
74484;SHT31;62942;52.462;10.846;2024-02-15T05:55:05;11;97.2
74484;SHT31;62942;52.462;10.846;2024-02-15T05:56:15;11;97.2
74484;SHT31;62942;52.462;10.846;2024-02-15T05:57:25;11;97.2
74484;SHT31;62942;52.462;10.846;2024-02-15T05:58:25;11;97.3
74484;SHT31;62942;52.462;10.846;2024-02-15T05:59:35;11;97.2
74484;SHT31;62942;52.462;10.846;2024-02-15T06:00:45;11;97.2
74484;SHT31;62942;52.462;10.846;2024-02-15T06:01:55;11;97.3
74484;SHT31;62942;52.462;10.846;2024-02-15T06:02:55;11;97.2
74484;SHT31;62942;52.462;10.846;2024-02-15T06:04:05;11;97.2
74484;SHT31;62942;52.462;10.846;2024-02-15T06:05:05;11;97.2
74484;SHT31;62942;52.462;10.846;2024-02-15T06:06:15;11;97.2
74484;SHT31;62942;52.462;10.846;2024-02-15T06:07:25;11;97.2
74484;SHT31;62942;52.462;10.846;2024-02-15T06:08:25;11;97.2
74484;SHT31;62942;52.462;10.846;2024-02-15T06:09:35;11;97.2
74484;SHT31;62942;52.462;10.846;2024-02-15T06:10:35;11;97.2
74484;SHT31;62942;52.462;10.846;2024-02-15T06:11:35;11;97.2
74484;SHT31;62942;52.462;10.846;2024-02-15T06:12:45;11;97.2
74484;SHT31;62942;52.462;10.846;2024-02-15T06:13:45;11;97.1
74484;SHT31;62942;52.462;10.846;2024-02-15T06:14:55;11;97.1
74484;SHT31;62942;52.462;10.846;2024-02-15T06:16:05;11;97.1
74484;SHT31;62942;52.462;10.846;2024-02-15T06:17:15;11;97.1
74484;SHT31;62942;52.462;10.846;2024-02-15T06:18:15;11;97
74484;SHT31;62942;52.462;10.846;2024-02-15T06:19:25;11;97
74484;SHT31;62942;52.462;10.846;2024-02-15T06:20:25;11;97
74484;SHT31;62942;52.462;10.846;2024-02-15T06:21:35;11;96.9
74484;SHT31;62942;52.462;10.846;2024-02-15T06:22:35;11;96.9
74484;SHT31;62942;52.462;10.846;2024-02-15T06:23:45;11;96.9
74484;SHT31;62942;52.462;10.846;2024-02-15T06:24:55;11;96.9
74484;SHT31;62942;52.462;10.846;2024-02-15T06:25:56;11;96.9
74484;SHT31;62942;52.462;10.846;2024-02-15T06:27:05;11;96.8
74484;SHT31;62942;52.462;10.846;2024-02-15T06:28:05;11;96.9
74484;SHT31;62942;52.462;10.846;2024-02-15T06:29:15;10.9;96.8
74484;SHT31;62942;52.462;10.846;2024-02-15T06:30:15;10.9;96.8
74484;SHT31;62942;52.462;10.846;2024-02-15T06:31:15;10.9;96.8
74484;SHT31;62942;52.462;10.846;2024-02-15T06:32:25;10.9;96.8
74484;SHT31;62942;52.462;10.846;2024-02-15T06:33:25;10.9;96.8
74484;SHT31;62942;52.462;10.846;2024-02-15T06:34:35;10.9;96.8
74484;SHT31;62942;52.462;10.846;2024-02-15T06:35:45;10.9;96.8
74484;SHT31;62942;52.462;10.846;2024-02-15T06:36:55;10.9;96.8
74484;SHT31;62942;52.462;10.846;2024-02-15T06:37:55;10.9;96.8
74484;SHT31;62942;52.462;10.846;2024-02-15T06:39:05;10.9;96.8
74484;SHT31;62942;52.462;10.846;2024-02-15T06:40:15;11;96.8
74484;SHT31;62942;52.462;10.846;2024-02-15T06:41:15;11;96.8
74484;SHT31;62942;52.462;10.846;2024-02-15T06:42:15;11;96.8
74484;SHT31;62942;52.462;10.846;2024-02-15T06:43:15;11;96.8
74484;SHT31;62942;52.462;10.846;2024-02-15T06:44:25;11;96.8
74484;SHT31;62942;52.462;10.846;2024-02-15T06:45:25;11;96.8
74484;SHT31;62942;52.462;10.846;2024-02-15T06:46:35;11;96.8
74484;SHT31;62942;52.462;10.846;2024-02-15T06:47:35;11;96.8
74484;SHT31;62942;52.462;10.846;2024-02-15T06:48:35;11;96.9
74484;SHT31;62942;52.462;10.846;2024-02-15T06:49:45;11;96.9
74484;SHT31;62942;52.462;10.846;2024-02-15T06:50:47;11.1;96.9
74484;SHT31;62942;52.462;10.846;2024-02-15T06:51:55;11.1;96.9
74484;SHT31;62942;52.462;10.846;2024-02-15T06:52:55;11.1;96.9
74484;SHT31;62942;52.462;10.846;2024-02-15T06:54:05;11.1;96.9
74484;SHT31;62942;52.462;10.846;2024-02-15T06:55:06;11.1;96.9
74484;SHT31;62942;52.462;10.846;2024-02-15T06:56:05;11.1;96.9
74484;SHT31;62942;52.462;10.846;2024-02-15T06:57:15;11.2;96.9
74484;SHT31;62942;52.462;10.846;2024-02-15T06:58:25;11.2;96.8
74484;SHT31;62942;52.462;10.846;2024-02-15T06:59:25;11.2;96.8
74484;SHT31;62942;52.462;10.846;2024-02-15T07:00:35;11.2;96.8
74484;SHT31;62942;52.462;10.846;2024-02-15T07:01:35;11.2;96.8
74484;SHT31;62942;52.462;10.846;2024-02-15T07:02:45;11.3;96.8
74484;SHT31;62942;52.462;10.846;2024-02-15T07:03:55;11.3;96.7
74484;SHT31;62942;52.462;10.846;2024-02-15T07:05:05;11.3;96.7
74484;SHT31;62942;52.462;10.846;2024-02-15T07:06:15;11.3;96.6